Terminal Aerodrome Forecast
Issued by NWS

Home | Current Version | Previous Version | Text Only | Print | Product List | Glossary On
Versions: 1 2 3 4 5 6 7 8 9 10 11 12 13 14 15
178
FTUS43 KDTX 231720
TAFMBS
TAF
KMBS 231720Z 2318/2418 06007KT P6SM SCT250
     FM232200 07005KT P6SM BKN250
     FM240100 VRB03KT P6SM BKN250
     FM241000 20008KT P6SM SCT040 OVC150 PROB30 2410/2416 3SM -TSRA
      OVC040CB=

USA.gov is the U.S. government's official web portal to all federal, state and local government web resources and services.